sensor_id;sensor_type;location;lat;lon;timestamp;temperature;humidity
5689;DHT22;2869;50.432;8.680;2022-10-03T00:00:00;9.40;99.90
5689;DHT22;2869;50.432;8.680;2022-10-03T00:02:43;9.40;99.90
5689;DHT22;2869;50.432;8.680;2022-10-03T00:05:28;9.30;99.90
5689;DHT22;2869;50.432;8.680;2022-10-03T00:08:06;9.30;99.90
5689;DHT22;2869;50.432;8.680;2022-10-03T00:10:40;9.30;99.90
5689;DHT22;2869;50.432;8.680;2022-10-03T00:13:20;9.30;99.90
5689;DHT22;2869;50.432;8.680;2022-10-03T00:15:54;9.20;99.90
5689;DHT22;2869;50.432;8.680;2022-10-03T00:18:35;9.20;99.90
5689;DHT22;2869;50.432;8.680;2022-10-03T00:21:16;9.10;99.90
5689;DHT22;2869;50.432;8.680;2022-10-03T00:23:53;9.10;99.90
5689;DHT22;2869;50.432;8.680;2022-10-03T00:26:29;9.10;99.90
5689;DHT22;2869;50.432;8.680;2022-10-03T00:29:32;9.10;99.90
5689;DHT22;2869;50.432;8.680;2022-10-03T00:32:11;9.00;99.90
5689;DHT22;2869;50.432;8.680;2022-10-03T00:34:57;9.00;99.90
5689;DHT22;2869;50.432;8.680;2022-10-03T00:37:31;9.00;99.90
5689;DHT22;2869;50.432;8.680;2022-10-03T00:43:36;8.90;99.90
5689;DHT22;2869;50.432;8.680;2022-10-03T00:46:33;8.90;99.90
5689;DHT22;2869;50.432;8.680;2022-10-03T00:49:27;8.90;99.90
5689;DHT22;2869;50.432;8.680;2022-10-03T00:52:15;8.90;99.90
5689;DHT22;2869;50.432;8.680;2022-10-03T00:54:58;8.80;99.90
5689;DHT22;2869;50.432;8.680;2022-10-03T00:57:43;8.90;99.90
5689;DHT22;2869;50.432;8.680;2022-10-03T01:00:18;8.80;99.90
5689;DHT22;2869;50.432;8.680;2022-10-03T01:06:19;8.80;99.90
5689;DHT22;2869;50.432;8.680;2022-10-03T01:09:02;8.80;99.90
5689;DHT22;2869;50.432;8.680;2022-10-03T01:11:44;8.80;99.90
5689;DHT22;2869;50.432;8.680;2022-10-03T01:14:27;8.80;99.90
5689;DHT22;2869;50.432;8.680;2022-10-03T01:17:07;8.80;99.90
5689;DHT22;2869;50.432;8.680;2022-10-03T01:20:13;8.70;99.90
5689;DHT22;2869;50.432;8.680;2022-10-03T01:26:17;8.70;99.90
5689;DHT22;2869;50.432;8.680;2022-10-03T01:28:51;8.60;99.90
5689;DHT22;2869;50.432;8.680;2022-10-03T01:31:43;8.60;99.90
5689;DHT22;2869;50.432;8.680;2022-10-03T01:34:17;8.50;99.90
5689;DHT22;2869;50.432;8.680;2022-10-03T01:36:53;8.50;99.90
5689;DHT22;2869;50.432;8.680;2022-10-03T01:39:27;8.40;99.90
5689;DHT22;2869;50.432;8.680;2022-10-03T01:42:00;8.40;99.90
5689;DHT22;2869;50.432;8.680;2022-10-03T01:44:35;8.40;99.90
5689;DHT22;2869;50.432;8.680;2022-10-03T01:47:16;8.40;99.90
5689;DHT22;2869;50.432;8.680;2022-10-03T01:49:49;8.40;99.90
5689;DHT22;2869;50.432;8.680;2022-10-03T01:52:22;8.30;99.90
5689;DHT22;2869;50.432;8.680;2022-10-03T01:54:55;8.30;99.90
5689;DHT22;2869;50.432;8.680;2022-10-03T01:57:28;8.30;99.90
5689;DHT22;2869;50.432;8.680;2022-10-03T02:00:01;8.20;99.90
5689;DHT22;2869;50.432;8.680;2022-10-03T02:02:34;8.20;99.90
5689;DHT22;2869;50.432;8.680;2022-10-03T02:05:07;8.20;99.90
5689;DHT22;2869;50.432;8.680;2022-10-03T02:07:42;8.20;99.90
5689;DHT22;2869;50.432;8.680;2022-10-03T02:10:21;8.20;99.90
5689;DHT22;2869;50.432;8.680;2022-10-03T02:12:59;8.10;99.90
5689;DHT22;2869;50.432;8.680;2022-10-03T02:15:33;8.10;99.90
5689;DHT22;2869;50.432;8.680;2022-10-03T02:18:12;8.10;99.90
5689;DHT22;2869;50.432;8.680;2022-10-03T02:20:44;8.10;99.90
5689;DHT22;2869;50.432;8.680;2022-10-03T02:23:24;8.10;99.90
5689;DHT22;2869;50.432;8.680;2022-10-03T02:25:59;8.10;99.90
5689;DHT22;2869;50.432;8.680;2022-10-03T02:28:47;8.00;99.90
5689;DHT22;2869;50.432;8.680;2022-10-03T02:31:53;8.00;99.90
5689;DHT22;2869;50.432;8.680;2022-10-03T02:34:46;8.00;99.90
5689;DHT22;2869;50.432;8.680;2022-10-03T02:37:40;7.90;99.90
5689;DHT22;2869;50.432;8.680;2022-10-03T02:40:44;7.90;99.90
5689;DHT22;2869;50.432;8.680;2022-10-03T02:43:37;8.00;99.90
5689;DHT22;2869;50.432;8.680;2022-10-03T02:49:28;8.10;99.90
5689;DHT22;2869;50.432;8.680;2022-10-03T02:52:14;8.10;99.90
5689;DHT22;2869;50.432;8.680;2022-10-03T02:54:55;8.10;99.90
5689;DHT22;2869;50.432;8.680;2022-10-03T03:00:45;8.10;99.90
5689;DHT22;2869;50.432;8.680;2022-10-03T03:03:46;8.10;99.90
5689;DHT22;2869;50.432;8.680;2022-10-03T03:09:35;8.20;99.90
5689;DHT22;2869;50.432;8.680;2022-10-03T03:12:43;8.20;99.90
5689;DHT22;2869;50.432;8.680;2022-10-03T03:15:58;8.10;99.90
5689;DHT22;2869;50.432;8.680;2022-10-03T03:18:35;8.10;99.90
5689;DHT22;2869;50.432;8.680;2022-10-03T03:21:12;8.00;99.90
5689;DHT22;2869;50.432;8.680;2022-10-03T03:24:02;8.10;99.90
5689;DHT22;2869;50.432;8.680;2022-10-03T03:26:57;8.10;99.90
5689;DHT22;2869;50.432;8.680;2022-10-03T03:29:34;8.10;99.90
5689;DHT22;2869;50.432;8.680;2022-10-03T03:32:13;8.10;99.90
5689;DHT22;2869;50.432;8.680;2022-10-03T03:34:49;8.10;99.90
5689;DHT22;2869;50.432;8.680;2022-10-03T03:37:23;8.00;99.90
5689;DHT22;2869;50.432;8.680;2022-10-03T03:40:10;8.00;99.90
5689;DHT22;2869;50.432;8.680;2022-10-03T03:43:01;8.00;99.90
5689;DHT22;2869;50.432;8.680;2022-10-03T03:45:41;8.00;99.90
5689;DHT22;2869;50.432;8.680;2022-10-03T03:48:21;8.00;99.90
5689;DHT22;2869;50.432;8.680;2022-10-03T03:51:03;7.90;99.90
5689;DHT22;2869;50.432;8.680;2022-10-03T03:54:12;7.90;99.90
5689;DHT22;2869;50.432;8.680;2022-10-03T03:57:12;7.90;99.90
5689;DHT22;2869;50.432;8.680;2022-10-03T03:59:57;7.80;99.90
5689;DHT22;2869;50.432;8.680;2022-10-03T04:02:41;7.80;99.90
5689;DHT22;2869;50.432;8.680;2022-10-03T04:05:19;7.90;99.90
5689;DHT22;2869;50.432;8.680;2022-10-03T04:08:00;7.80;99.90
5689;DHT22;2869;50.432;8.680;2022-10-03T04:10:46;7.90;99.90
5689;DHT22;2869;50.432;8.680;2022-10-03T04:13:30;7.90;99.90
5689;DHT22;2869;50.432;8.680;2022-10-03T04:16:12;7.80;99.90
5689;DHT22;2869;50.432;8.680;2022-10-03T04:19:03;7.90;99.90
5689;DHT22;2869;50.432;8.680;2022-10-03T04:21:41;7.90;99.90
5689;DHT22;2869;50.432;8.680;2022-10-03T04:24:35;7.90;99.90
5689;DHT22;2869;50.432;8.680;2022-10-03T04:27:24;7.90;99.90
5689;DHT22;2869;50.432;8.680;2022-10-03T04:30:04;7.90;99.90
5689;DHT22;2869;50.432;8.680;2022-10-03T04:32:47;7.90;99.90
5689;DHT22;2869;50.432;8.680;2022-10-03T04:35:28;8.00;99.90
5689;DHT22;2869;50.432;8.680;2022-10-03T04:38:05;7.90;99.90
5689;DHT22;2869;50.432;8.680;2022-10-03T04:40:42;7.90;99.90
5689;DHT22;2869;50.432;8.680;2022-10-03T04:43:18;7.80;99.90
5689;DHT22;2869;50.432;8.680;2022-10-03T04:46:03;7.90;99.90
5689;DHT22;2869;50.432;8.680;2022-10-03T04:48:37;7.90;99.90
5689;DHT22;2869;50.432;8.680;2022-10-03T04:51:14;7.90;99.90
5689;DHT22;2869;50.432;8.680;2022-10-03T04:53:51;7.90;99.90
5689;DHT22;2869;50.432;8.680;2022-10-03T04:56:39;7.90;99.90
5689;DHT22;2869;50.432;8.680;2022-10-03T04:59:28;7.90;99.90
5689;DHT22;2869;50.432;8.680;2022-10-03T05:02:06;7.90;99.90
5689;DHT22;2869;50.432;8.680;2022-10-03T05:04:43;7.90;99.90
5689;DHT22;2869;50.432;8.680;2022-10-03T05:07:17;7.90;99.90
5689;DHT22;2869;50.432;8.680;2022-10-03T05:09:51;7.90;99.90
5689;DHT22;2869;50.432;8.680;2022-10-03T05:12:26;7.90;99.90
5689;DHT22;2869;50.432;8.680;2022-10-03T05:15:04;8.00;99.90
5689;DHT22;2869;50.432;8.680;2022-10-03T05:17:45;8.00;99.90
5689;DHT22;2869;50.432;8.680;2022-10-03T05:20:42;8.00;99.90
5689;DHT22;2869;50.432;8.680;2022-10-03T05:23:18;8.10;99.90
5689;DHT22;2869;50.432;8.680;2022-10-03T05:25:53;8.10;99.90
5689;DHT22;2869;50.432;8.680;2022-10-03T05:28:33;8.20;99.90
5689;DHT22;2869;50.432;8.680;2022-10-03T05:31:05;8.20;99.90
5689;DHT22;2869;50.432;8.680;2022-10-03T05:33:45;8.30;99.90
5689;DHT22;2869;50.432;8.680;2022-10-03T05:36:25;8.30;99.90
5689;DHT22;2869;50.432;8.680;2022-10-03T05:39:26;8.40;99.90
5689;DHT22;2869;50.432;8.680;2022-10-03T05:41:55;8.50;99.90
5689;DHT22;2869;50.432;8.680;2022-10-03T05:44:37;8.50;99.90
5689;DHT22;2869;50.432;8.680;2022-10-03T05:47:09;8.50;99.90
5689;DHT22;2869;50.432;8.680;2022-10-03T05:50:12;8.50;99.90
5689;DHT22;2869;50.432;8.680;2022-10-03T05:52:57;8.60;99.90
5689;DHT22;2869;50.432;8.680;2022-10-03T05:55:44;8.60;99.90
5689;DHT22;2869;50.432;8.680;2022-10-03T05:58:31;8.60;99.90
5689;DHT22;2869;50.432;8.680;2022-10-03T06:01:21;8.70;99.90
5689;DHT22;2869;50.432;8.680;2022-10-03T06:04:07;8.70;99.90
5689;DHT22;2869;50.432;8.680;2022-10-03T06:06:50;8.80;99.90
5689;DHT22;2869;50.432;8.680;2022-10-03T06:09:49;8.90;99.90
5689;DHT22;2869;50.432;8.680;2022-10-03T06:12:26;9.00;99.90
5689;DHT22;2869;50.432;8.680;2022-10-03T06:17:56;10.00;99.90
5689;DHT22;2869;50.432;8.680;2022-10-03T06:21:07;10.80;99.90
5689;DHT22;2869;50.432;8.680;2022-10-03T06:23:58;11.50;99.90
5689;DHT22;2869;50.432;8.680;2022-10-03T06:26:49;12.30;99.90
5689;DHT22;2869;50.432;8.680;2022-10-03T06:36:07;14.50;99.90
5689;DHT22;2869;50.432;8.680;2022-10-03T06:42:41;15.50;99.90
5689;DHT22;2869;50.432;8.680;2022-10-03T06:48:17;16.60;99.90
5689;DHT22;2869;50.432;8.680;2022-10-03T06:50:55;17.10;99.90
5689;DHT22;2869;50.432;8.680;2022-10-03T06:54:05;17.40;99.90
5689;DHT22;2869;50.432;8.680;2022-10-03T06:57:00;17.80;99.90
5689;DHT22;2869;50.432;8.680;2022-10-03T06:59:50;18.30;99.90
5689;DHT22;2869;50.432;8.680;2022-10-03T07:02:55;18.60;99.90
5689;DHT22;2869;50.432;8.680;2022-10-03T07:15:33;20.10;99.90
5689;DHT22;2869;50.432;8.680;2022-10-03T07:24:40;20.40;99.90
5689;DHT22;2869;50.432;8.680;2022-10-03T07:27:25;20.50;99.90
5689;DHT22;2869;50.432;8.680;2022-10-03T07:30:07;20.40;99.90
5689;DHT22;2869;50.432;8.680;2022-10-03T07:35:44;20.20;99.90
5689;DHT22;2869;50.432;8.680;2022-10-03T07:38:50;20.10;99.90
5689;DHT22;2869;50.432;8.680;2022-10-03T07:41:50;19.70;99.90
5689;DHT22;2869;50.432;8.680;2022-10-03T07:44:43;19.00;99.90
5689;DHT22;2869;50.432;8.680;2022-10-03T07:47:45;18.60;99.90
5689;DHT22;2869;50.432;8.680;2022-10-03T07:50:38;18.50;99.90
5689;DHT22;2869;50.432;8.680;2022-10-03T07:56:05;18.30;99.90
5689;DHT22;2869;50.432;8.680;2022-10-03T07:58:54;18.20;99.90
5689;DHT22;2869;50.432;8.680;2022-10-03T08:01:46;18.30;99.90
5689;DHT22;2869;50.432;8.680;2022-10-03T08:04:53;18.20;99.90
5689;DHT22;2869;50.432;8.680;2022-10-03T08:07:40;18.20;99.90
5689;DHT22;2869;50.432;8.680;2022-10-03T08:10:38;18.30;99.90
5689;DHT22;2869;50.432;8.680;2022-10-03T08:13:25;18.40;99.90
5689;DHT22;2869;50.432;8.680;2022-10-03T08:16:09;18.50;99.90
5689;DHT22;2869;50.432;8.680;2022-10-03T08:19:10;18.50;99.90
5689;DHT22;2869;50.432;8.680;2022-10-03T08:21:53;18.60;99.90
5689;DHT22;2869;50.432;8.680;2022-10-03T08:24:41;18.70;99.90
5689;DHT22;2869;50.432;8.680;2022-10-03T08:27:30;18.60;99.90
5689;DHT22;2869;50.432;8.680;2022-10-03T08:30:14;18.70;99.90
5689;DHT22;2869;50.432;8.680;2022-10-03T08:33:07;18.70;99.90
5689;DHT22;2869;50.432;8.680;2022-10-03T08:36:00;18.80;99.90
5689;DHT22;2869;50.432;8.680;2022-10-03T08:44:54;17.80;99.90
5689;DHT22;2869;50.432;8.680;2022-10-03T08:47:55;17.30;99.90
5689;DHT22;2869;50.432;8.680;2022-10-03T08:50:52;16.70;99.90
5689;DHT22;2869;50.432;8.680;2022-10-03T08:57:00;15.80;99.90
5689;DHT22;2869;50.432;8.680;2022-10-03T09:00:01;15.30;99.90
5689;DHT22;2869;50.432;8.680;2022-10-03T09:05:57;15.20;99.90
5689;DHT22;2869;50.432;8.680;2022-10-03T09:09:09;15.30;99.90
5689;DHT22;2869;50.432;8.680;2022-10-03T09:12:20;15.20;99.90
5689;DHT22;2869;50.432;8.680;2022-10-03T09:15:09;15.30;99.90
5689;DHT22;2869;50.432;8.680;2022-10-03T09:21:28;15.90;99.90
5689;DHT22;2869;50.432;8.680;2022-10-03T09:24:22;16.20;99.90
5689;DHT22;2869;50.432;8.680;2022-10-03T09:27:21;16.20;99.90
5689;DHT22;2869;50.432;8.680;2022-10-03T09:30:22;16.30;99.90
5689;DHT22;2869;50.432;8.680;2022-10-03T09:36:33;16.10;99.90
5689;DHT22;2869;50.432;8.680;2022-10-03T09:45:24;15.90;99.90
5689;DHT22;2869;50.432;8.680;2022-10-03T09:48:14;15.90;99.90
5689;DHT22;2869;50.432;8.680;2022-10-03T09:51:02;16.40;99.90
5689;DHT22;2869;50.432;8.680;2022-10-03T09:54:01;16.80;99.90
5689;DHT22;2869;50.432;8.680;2022-10-03T09:56:59;16.90;99.90
5689;DHT22;2869;50.432;8.680;2022-10-03T09:59:39;16.80;99.90
5689;DHT22;2869;50.432;8.680;2022-10-03T10:05:53;16.90;99.90
5689;DHT22;2869;50.432;8.680;2022-10-03T10:08:41;16.80;99.90
5689;DHT22;2869;50.432;8.680;2022-10-03T10:11:25;16.80;99.90
5689;DHT22;2869;50.432;8.680;2022-10-03T10:14:21;16.80;99.90
5689;DHT22;2869;50.432;8.680;2022-10-03T10:19:57;16.60;99.90
5689;DHT22;2869;50.432;8.680;2022-10-03T10:23:14;16.40;99.90
5689;DHT22;2869;50.432;8.680;2022-10-03T10:29:17;15.80;99.90
5689;DHT22;2869;50.432;8.680;2022-10-03T10:35:16;16.10;99.90
5689;DHT22;2869;50.432;8.680;2022-10-03T10:47:29;18.10;99.90
5689;DHT22;2869;50.432;8.680;2022-10-03T11:02:56;18.90;99.90
5689;DHT22;2869;50.432;8.680;2022-10-03T11:08:54;18.20;99.90
5689;DHT22;2869;50.432;8.680;2022-10-03T11:11:59;17.90;99.90
5689;DHT22;2869;50.432;8.680;2022-10-03T11:15:31;17.90;99.90
5689;DHT22;2869;50.432;8.680;2022-10-03T11:18:45;17.60;99.90
5689;DHT22;2869;50.432;8.680;2022-10-03T11:25:06;17.40;99.90
5689;DHT22;2869;50.432;8.680;2022-10-03T11:28:12;17.60;99.90
5689;DHT22;2869;50.432;8.680;2022-10-03T11:31:09;18.40;99.90
5689;DHT22;2869;50.432;8.680;2022-10-03T11:34:21;18.90;99.90
5689;DHT22;2869;50.432;8.680;2022-10-03T11:37:06;19.40;99.90
5689;DHT22;2869;50.432;8.680;2022-10-03T11:39:41;19.80;99.90
5689;DHT22;2869;50.432;8.680;2022-10-03T11:42:19;20.20;99.90
5689;DHT22;2869;50.432;8.680;2022-10-03T11:44:55;20.50;99.90
5689;DHT22;2869;50.432;8.680;2022-10-03T11:47:39;20.70;99.90
5689;DHT22;2869;50.432;8.680;2022-10-03T11:50:33;20.60;99.90
5689;DHT22;2869;50.432;8.680;2022-10-03T11:56:10;20.10;99.90
5689;DHT22;2869;50.432;8.680;2022-10-03T11:58:50;19.70;99.90
5689;DHT22;2869;50.432;8.680;2022-10-03T12:01:26;19.60;99.90
5689;DHT22;2869;50.432;8.680;2022-10-03T12:04:01;19.60;99.90
5689;DHT22;2869;50.432;8.680;2022-10-03T12:06:56;19.40;99.90
5689;DHT22;2869;50.432;8.680;2022-10-03T12:09:54;19.30;99.90
5689;DHT22;2869;50.432;8.680;2022-10-03T12:12:31;19.20;99.90
5689;DHT22;2869;50.432;8.680;2022-10-03T12:15:04;19.10;99.90
5689;DHT22;2869;50.432;8.680;2022-10-03T12:17:39;18.90;99.90
5689;DHT22;2869;50.432;8.680;2022-10-03T12:20:16;18.90;99.90
5689;DHT22;2869;50.432;8.680;2022-10-03T12:22:47;18.70;99.90
5689;DHT22;2869;50.432;8.680;2022-10-03T12:25:20;18.40;99.90
5689;DHT22;2869;50.432;8.680;2022-10-03T12:27:59;18.20;99.90
5689;DHT22;2869;50.432;8.680;2022-10-03T12:30:30;18.20;99.90
5689;DHT22;2869;50.432;8.680;2022-10-03T12:36:03;18.20;99.90
5689;DHT22;2869;50.432;8.680;2022-10-03T12:38:55;18.00;99.90
5689;DHT22;2869;50.432;8.680;2022-10-03T12:41:48;17.60;99.90
5689;DHT22;2869;50.432;8.680;2022-10-03T12:44:26;17.40;99.90
5689;DHT22;2869;50.432;8.680;2022-10-03T12:47:06;17.30;99.90
5689;DHT22;2869;50.432;8.680;2022-10-03T12:49:45;17.30;99.90
5689;DHT22;2869;50.432;8.680;2022-10-03T12:52:22;17.40;99.90
5689;DHT22;2869;50.432;8.680;2022-10-03T12:54:58;17.70;99.90
5689;DHT22;2869;50.432;8.680;2022-10-03T12:57:49;18.20;99.90
5689;DHT22;2869;50.432;8.680;2022-10-03T13:00:21;18.50;99.90
5689;DHT22;2869;50.432;8.680;2022-10-03T13:03:18;18.60;99.90
5689;DHT22;2869;50.432;8.680;2022-10-03T13:05:55;18.40;99.90
5689;DHT22;2869;50.432;8.680;2022-10-03T13:08:40;18.50;99.90
5689;DHT22;2869;50.432;8.680;2022-10-03T13:11:27;18.80;99.90
5689;DHT22;2869;50.432;8.680;2022-10-03T13:14:08;18.80;99.90
5689;DHT22;2869;50.432;8.680;2022-10-03T13:16:41;18.80;99.90
5689;DHT22;2869;50.432;8.680;2022-10-03T13:19:15;18.60;99.90
5689;DHT22;2869;50.432;8.680;2022-10-03T13:21:54;18.50;99.90
5689;DHT22;2869;50.432;8.680;2022-10-03T13:24:30;18.50;99.90
5689;DHT22;2869;50.432;8.680;2022-10-03T13:27:14;18.50;99.90
5689;DHT22;2869;50.432;8.680;2022-10-03T13:29:45;18.50;99.90
5689;DHT22;2869;50.432;8.680;2022-10-03T13:32:24;18.60;99.90
5689;DHT22;2869;50.432;8.680;2022-10-03T13:35:07;18.80;99.90
5689;DHT22;2869;50.432;8.680;2022-10-03T13:40:50;19.00;99.90
5689;DHT22;2869;50.432;8.680;2022-10-03T13:43:27;19.30;99.90
5689;DHT22;2869;50.432;8.680;2022-10-03T13:46:04;19.40;99.90
5689;DHT22;2869;50.432;8.680;2022-10-03T13:48:36;19.40;99.90
5689;DHT22;2869;50.432;8.680;2022-10-03T13:51:11;19.60;99.90
5689;DHT22;2869;50.432;8.680;2022-10-03T13:53:54;19.60;99.90
5689;DHT22;2869;50.432;8.680;2022-10-03T13:56:46;19.80;99.90
5689;DHT22;2869;50.432;8.680;2022-10-03T13:59:31;19.90;99.90
5689;DHT22;2869;50.432;8.680;2022-10-03T14:02:16;20.10;99.90
5689;DHT22;2869;50.432;8.680;2022-10-03T14:05:00;20.20;99.90
5689;DHT22;2869;50.432;8.680;2022-10-03T14:07:41;20.40;99.90
5689;DHT22;2869;50.432;8.680;2022-10-03T14:10:44;20.40;99.90
5689;DHT22;2869;50.432;8.680;2022-10-03T14:13:21;20.10;99.90
5689;DHT22;2869;50.432;8.680;2022-10-03T14:15:58;20.10;99.90
5689;DHT22;2869;50.432;8.680;2022-10-03T14:18:38;19.90;99.90
5689;DHT22;2869;50.432;8.680;2022-10-03T14:21:32;19.50;99.90
5689;DHT22;2869;50.432;8.680;2022-10-03T14:24:07;19.20;99.90
5689;DHT22;2869;50.432;8.680;2022-10-03T14:26:43;19.00;99.90
5689;DHT22;2869;50.432;8.680;2022-10-03T14:29:18;18.80;99.90
5689;DHT22;2869;50.432;8.680;2022-10-03T14:31:53;18.70;99.90
5689;DHT22;2869;50.432;8.680;2022-10-03T14:34:40;18.50;99.90
5689;DHT22;2869;50.432;8.680;2022-10-03T14:37:18;18.40;99.90
5689;DHT22;2869;50.432;8.680;2022-10-03T14:39:58;18.30;99.90
5689;DHT22;2869;50.432;8.680;2022-10-03T14:42:50;18.30;99.90
5689;DHT22;2869;50.432;8.680;2022-10-03T14:45:23;18.40;99.90
5689;DHT22;2869;50.432;8.680;2022-10-03T14:47:54;18.30;99.90
5689;DHT22;2869;50.432;8.680;2022-10-03T14:50:24;18.20;99.90
5689;DHT22;2869;50.432;8.680;2022-10-03T14:52:54;18.20;99.90
5689;DHT22;2869;50.432;8.680;2022-10-03T14:55:29;18.20;99.90
5689;DHT22;2869;50.432;8.680;2022-10-03T14:57:59;18.10;99.90
5689;DHT22;2869;50.432;8.680;2022-10-03T15:00:35;18.10;99.90
5689;DHT22;2869;50.432;8.680;2022-10-03T15:03:29;17.70;99.90
5689;DHT22;2869;50.432;8.680;2022-10-03T15:06:01;17.60;99.90
5689;DHT22;2869;50.432;8.680;2022-10-03T15:08:33;17.50;99.90
5689;DHT22;2869;50.432;8.680;2022-10-03T15:11:04;17.40;99.90
5689;DHT22;2869;50.432;8.680;2022-10-03T15:13:36;17.40;99.90
5689;DHT22;2869;50.432;8.680;2022-10-03T15:16:04;17.30;99.90
5689;DHT22;2869;50.432;8.680;2022-10-03T15:18:34;17.30;99.90
5689;DHT22;2869;50.432;8.680;2022-10-03T15:21:04;17.20;99.90
5689;DHT22;2869;50.432;8.680;2022-10-03T15:23:40;17.20;99.90
5689;DHT22;2869;50.432;8.680;2022-10-03T15:26:10;17.20;99.90
5689;DHT22;2869;50.432;8.680;2022-10-03T15:28:42;17.00;99.90
5689;DHT22;2869;50.432;8.680;2022-10-03T15:31:13;16.90;99.90
5689;DHT22;2869;50.432;8.680;2022-10-03T15:33:44;16.80;99.90
5689;DHT22;2869;50.432;8.680;2022-10-03T15:36:14;16.70;99.90
5689;DHT22;2869;50.432;8.680;2022-10-03T15:38:44;16.60;99.90
5689;DHT22;2869;50.432;8.680;2022-10-03T15:41:16;16.50;99.90
5689;DHT22;2869;50.432;8.680;2022-10-03T15:43:53;16.50;99.90
5689;DHT22;2869;50.432;8.680;2022-10-03T15:46:31;16.50;99.90
5689;DHT22;2869;50.432;8.680;2022-10-03T15:49:04;16.50;99.90
5689;DHT22;2869;50.432;8.680;2022-10-03T15:51:34;16.50;99.90
5689;DHT22;2869;50.432;8.680;2022-10-03T15:54:05;16.50;99.90
5689;DHT22;2869;50.432;8.680;2022-10-03T15:56:38;16.40;99.90
5689;DHT22;2869;50.432;8.680;2022-10-03T15:59:07;16.50;99.90
5689;DHT22;2869;50.432;8.680;2022-10-03T16:01:38;16.60;99.90
5689;DHT22;2869;50.432;8.680;2022-10-03T16:04:14;16.60;99.90
5689;DHT22;2869;50.432;8.680;2022-10-03T16:06:46;16.60;99.90
5689;DHT22;2869;50.432;8.680;2022-10-03T16:09:22;16.80;99.90
5689;DHT22;2869;50.432;8.680;2022-10-03T16:11:58;16.90;99.90
5689;DHT22;2869;50.432;8.680;2022-10-03T16:14:29;16.90;99.90
5689;DHT22;2869;50.432;8.680;2022-10-03T16:17:00;16.50;99.90
5689;DHT22;2869;50.432;8.680;2022-10-03T16:19:35;16.30;99.90
5689;DHT22;2869;50.432;8.680;2022-10-03T16:22:12;16.10;99.90
5689;DHT22;2869;50.432;8.680;2022-10-03T16:24:56;15.90;99.90
5689;DHT22;2869;50.432;8.680;2022-10-03T16:27:25;15.80;99.90
5689;DHT22;2869;50.432;8.680;2022-10-03T16:30:01;15.60;99.90
5689;DHT22;2869;50.432;8.680;2022-10-03T16:32:29;15.40;99.90
5689;DHT22;2869;50.432;8.680;2022-10-03T16:34:59;15.10;99.90
5689;DHT22;2869;50.432;8.680;2022-10-03T16:37:29;15.20;99.90
5689;DHT22;2869;50.432;8.680;2022-10-03T16:40:00;15.20;99.90
5689;DHT22;2869;50.432;8.680;2022-10-03T16:42:37;15.10;99.90
5689;DHT22;2869;50.432;8.680;2022-10-03T16:45:17;15.00;99.90
5689;DHT22;2869;50.432;8.680;2022-10-03T16:47:46;14.90;99.90
5689;DHT22;2869;50.432;8.680;2022-10-03T16:50:41;14.90;99.90
5689;DHT22;2869;50.432;8.680;2022-10-03T16:53:13;14.80;99.90
5689;DHT22;2869;50.432;8.680;2022-10-03T16:55:46;14.60;99.90
5689;DHT22;2869;50.432;8.680;2022-10-03T16:58:18;14.80;99.90
5689;DHT22;2869;50.432;8.680;2022-10-03T17:00:52;14.60;99.90
5689;DHT22;2869;50.432;8.680;2022-10-03T17:03:23;14.50;99.90
5689;DHT22;2869;50.432;8.680;2022-10-03T17:05:55;14.60;99.90
5689;DHT22;2869;50.432;8.680;2022-10-03T17:08:26;14.40;99.90
5689;DHT22;2869;50.432;8.680;2022-10-03T17:10:55;14.40;99.90
5689;DHT22;2869;50.432;8.680;2022-10-03T17:13:36;14.30;99.90
5689;DHT22;2869;50.432;8.680;2022-10-03T17:16:09;14.30;99.90
5689;DHT22;2869;50.432;8.680;2022-10-03T17:18:40;14.40;99.90
5689;DHT22;2869;50.432;8.680;2022-10-03T17:21:19;14.50;99.90
5689;DHT22;2869;50.432;8.680;2022-10-03T17:23:55;14.50;99.90
5689;DHT22;2869;50.432;8.680;2022-10-03T17:26:29;14.40;99.90
5689;DHT22;2869;50.432;8.680;2022-10-03T17:29:05;14.30;99.90
5689;DHT22;2869;50.432;8.680;2022-10-03T17:31:38;14.20;99.90
5689;DHT22;2869;50.432;8.680;2022-10-03T17:34:10;14.10;99.90
5689;DHT22;2869;50.432;8.680;2022-10-03T17:39:39;13.80;99.90
5689;DHT22;2869;50.432;8.680;2022-10-03T17:42:17;13.70;99.90
5689;DHT22;2869;50.432;8.680;2022-10-03T17:44:56;13.60;99.90
5689;DHT22;2869;50.432;8.680;2022-10-03T17:47:28;13.60;99.90
5689;DHT22;2869;50.432;8.680;2022-10-03T17:50:02;13.40;99.90
5689;DHT22;2869;50.432;8.680;2022-10-03T17:52:32;13.30;99.90
5689;DHT22;2869;50.432;8.680;2022-10-03T17:55:06;13.20;99.90
5689;DHT22;2869;50.432;8.680;2022-10-03T17:57:40;13.10;99.90
5689;DHT22;2869;50.432;8.680;2022-10-03T18:00:17;13.00;99.90
5689;DHT22;2869;50.432;8.680;2022-10-03T18:02:50;12.90;99.90
5689;DHT22;2869;50.432;8.680;2022-10-03T18:05:20;12.80;99.90
5689;DHT22;2869;50.432;8.680;2022-10-03T18:07:49;12.70;99.90
5689;DHT22;2869;50.432;8.680;2022-10-03T18:10:21;12.70;99.90
5689;DHT22;2869;50.432;8.680;2022-10-03T18:12:51;12.70;99.90
5689;DHT22;2869;50.432;8.680;2022-10-03T18:21:14;12.60;99.90
5689;DHT22;2869;50.432;8.680;2022-10-03T18:23:50;12.60;99.90
5689;DHT22;2869;50.432;8.680;2022-10-03T18:26:26;12.60;99.90
5689;DHT22;2869;50.432;8.680;2022-10-03T18:29:00;12.50;99.90
5689;DHT22;2869;50.432;8.680;2022-10-03T18:31:36;12.50;99.90
5689;DHT22;2869;50.432;8.680;2022-10-03T18:34:07;12.40;99.90
5689;DHT22;2869;50.432;8.680;2022-10-03T18:36:37;12.40;99.90
5689;DHT22;2869;50.432;8.680;2022-10-03T18:39:14;12.30;99.90
5689;DHT22;2869;50.432;8.680;2022-10-03T18:41:43;12.30;99.90
5689;DHT22;2869;50.432;8.680;2022-10-03T18:44:14;12.20;99.90
5689;DHT22;2869;50.432;8.680;2022-10-03T18:46:42;12.10;99.90
5689;DHT22;2869;50.432;8.680;2022-10-03T18:49:15;12.10;99.90
5689;DHT22;2869;50.432;8.680;2022-10-03T18:51:45;12.00;99.90
5689;DHT22;2869;50.432;8.680;2022-10-03T18:54:24;11.90;99.90
5689;DHT22;2869;50.432;8.680;2022-10-03T18:57:08;11.90;99.90
5689;DHT22;2869;50.432;8.680;2022-10-03T18:59:43;11.90;99.90
5689;DHT22;2869;50.432;8.680;2022-10-03T19:02:17;11.80;99.90
5689;DHT22;2869;50.432;8.680;2022-10-03T19:04:50;11.70;99.90
5689;DHT22;2869;50.432;8.680;2022-10-03T19:07:21;11.60;99.90
5689;DHT22;2869;50.432;8.680;2022-10-03T19:10:12;11.60;99.90
5689;DHT22;2869;50.432;8.680;2022-10-03T19:12:46;11.50;99.90
5689;DHT22;2869;50.432;8.680;2022-10-03T19:15:19;11.50;99.90
5689;DHT22;2869;50.432;8.680;2022-10-03T19:18:00;11.40;99.90
5689;DHT22;2869;50.432;8.680;2022-10-03T19:20:34;11.40;99.90
5689;DHT22;2869;50.432;8.680;2022-10-03T19:23:07;11.30;99.90
5689;DHT22;2869;50.432;8.680;2022-10-03T19:25:38;11.30;99.90
5689;DHT22;2869;50.432;8.680;2022-10-03T19:28:13;11.20;99.90
5689;DHT22;2869;50.432;8.680;2022-10-03T19:30:42;11.10;99.90
5689;DHT22;2869;50.432;8.680;2022-10-03T19:33:15;11.10;99.90
5689;DHT22;2869;50.432;8.680;2022-10-03T19:35:47;11.10;99.90
5689;DHT22;2869;50.432;8.680;2022-10-03T19:38:16;11.00;99.90
5689;DHT22;2869;50.432;8.680;2022-10-03T19:40:52;10.90;99.90
5689;DHT22;2869;50.432;8.680;2022-10-03T19:43:30;10.90;99.90
5689;DHT22;2869;50.432;8.680;2022-10-03T19:46:15;10.90;99.90
5689;DHT22;2869;50.432;8.680;2022-10-03T19:48:49;10.80;99.90
5689;DHT22;2869;50.432;8.680;2022-10-03T19:51:21;10.80;99.90
5689;DHT22;2869;50.432;8.680;2022-10-03T19:53:50;10.70;99.90
5689;DHT22;2869;50.432;8.680;2022-10-03T19:56:20;10.70;99.90
5689;DHT22;2869;50.432;8.680;2022-10-03T19:58:57;10.70;99.90
5689;DHT22;2869;50.432;8.680;2022-10-03T20:01:25;10.60;99.90